Dorchester, Texas
Current Conditions -  °F | °C
As of 8:55 AM on Thursday 23 Oct 2014 (Local Time) from KGYI Reporting Station
Light Rain Light Rain  
Wind Chill: 61°   Ceiling: 6000
Heat Index: 61°   Visibility: 10mi
Dew Point: 57°   Wind: 6mph
Humidity: 89%   Direction: 120°ESE
Pressure: 30.17"   Gusts: NA
Location:  33.5446°N, 96.6964°W
Report Text: KGYI 231355Z AUTO 12005KT 10SM -RA OVC060 16/14 A3017 RMK AO2 T01590141
Loading
Personal Weather Stations






























Interactive Weather Map
Tropical Storm Tracking
New forecast layout! Learn more

10-Day Weather Forecast

Advertisements
Track Severe Weather on mobile